Time;durP1;ratioP1;P1;durP2;ratioP2;P2;SDS_P1;SDS_P2;PMS_P1;PMS_P2;Temp;Humidity;BMP_temperature;BMP_pressure;BME280_temperature;BME280_humidity;BME280_pressure;Samples;Min_cycle;Max_cycle;Signal;HPM_P1;HPM_P2
2021/01/13 00:01:45;;;;;;;22.73;13.57;;;-8.40;82.60;;;;;;5005384;28;20064;-78
2021/01/13 00:04:11;;;;;;;25.98;14.57;;;-8.40;82.50;;;;;;5012837;28;20026;-77
2021/01/13 00:06:37;;;;;;;30.00;14.65;;;-8.30;82.50;;;;;;5012179;28;20022;-79
2021/01/13 00:09:04;;;;;;;28.30;16.92;;;-8.30;82.40;;;;;;5013495;28;20030;-78
2021/01/13 00:11:30;;;;;;;30.25;16.45;;;-8.20;82.30;;;;;;5012978;28;20506;-79
2021/01/13 00:13:55;;;;;;;30.90;16.23;;;-8.20;82.10;;;;;;5012917;28;20107;-78
2021/01/13 00:16:21;;;;;;;30.85;14.60;;;-8.10;82.00;;;;;;5012713;28;20034;-79
2021/01/13 00:18:49;;;;;;;32.75;15.77;;;-8.10;81.50;;;;;;5012868;28;20026;-78
2021/01/13 00:21:16;;;;;;;25.15;13.05;;;-8.10;81.50;;;;;;5014700;28;20328;-78
2021/01/13 00:23:46;;;;;;;27.48;13.85;;;-8.10;81.00;;;;;;5016548;28;20109;-78
2021/01/13 00:26:21;;;;;;;27.42;15.10;;;-8.30;81.00;;;;;;5016706;28;20018;-77
2021/01/13 00:28:48;;;;;;;29.13;16.50;;;-8.40;81.50;;;;;;5012780;28;20495;-77
2021/01/13 00:31:14;;;;;;;25.83;15.07;;;-8.40;81.90;;;;;;5016458;28;20018;-78
2021/01/13 00:33:43;;;;;;;30.42;15.20;;;-8.40;82.10;;;;;;5016226;28;20088;-78
2021/01/13 00:36:09;;;;;;;26.55;14.05;;;-8.50;82.20;;;;;;5016407;28;20022;-79
2021/01/13 00:38:35;;;;;;;30.08;15.52;;;-8.40;82.50;;;;;;5016237;28;20030;-77
2021/01/13 00:41:01;;;;;;;31.63;16.00;;;-8.50;82.50;;;;;;5016553;28;20033;-78
2021/01/13 00:43:26;;;;;;;23.42;10.15;;;-8.50;82.70;;;;;;5016309;28;20596;-78
2021/01/13 00:45:52;;;;;;;32.20;17.05;;;-8.60;83.20;;;;;;5016186;28;20044;-78
2021/01/13 00:48:18;;;;;;;32.75;15.98;;;-8.60;83.90;;;;;;5016818;28;20034;-78
2021/01/13 00:50:44;;;;;;;27.23;14.68;;;-8.60;84.20;;;;;;5016649;28;20095;-78
2021/01/13 00:53:10;;;;;;;27.20;15.43;;;-8.60;84.40;;;;;;5016391;28;20502;-78
2021/01/13 00:55:35;;;;;;;32.53;17.83;;;-8.50;84.70;;;;;;5016461;28;20044;-78
2021/01/13 00:58:01;;;;;;;32.25;16.50;;;-8.40;84.60;;;;;;5016642;28;20021;-78
2021/01/13 01:00:27;;;;;;;23.77;14.60;;;-8.40;84.20;;;;;;5018987;28;20018;-78
2021/01/13 01:02:53;;;;;;;29.77;16.77;;;-8.30;84.10;;;;;;5013714;28;20077;-78
2021/01/13 01:05:19;;;;;;;25.85;14.15;;;-8.20;83.90;;;;;;5008874;28;20479;-79
2021/01/13 01:07:45;;;;;;;32.63;20.15;;;-8.20;83.90;;;;;;5015824;28;20513;-78
2021/01/13 01:10:18;;;;;;;28.52;17.35;;;-8.30;82.70;;;;;;5015726;28;20018;-78
2021/01/13 01:12:44;;;;;;;41.22;16.13;;;-8.30;82.70;;;;;;5015953;28;20030;-77
2021/01/13 01:15:11;;;;;;;28.90;18.08;;;-8.40;83.10;;;;;;5015523;28;20022;-78
2021/01/13 01:17:37;;;;;;;22.60;13.00;;;-8.40;83.30;;;;;;5016068;28;20109;-79
2021/01/13 01:20:03;;;;;;;33.35;14.95;;;-8.30;83.40;;;;;;5014309;28;20375;-79
2021/01/13 01:22:29;;;;;;;30.02;16.00;;;-8.30;83.50;;;;;;5003733;28;20030;-77
2021/01/13 01:24:55;;;;;;;30.52;15.18;;;-8.30;83.40;;;;;;5015770;28;20021;-79
2021/01/13 01:27:21;;;;;;;31.27;15.10;;;-8.30;83.10;;;;;;5015568;28;20033;-77
2021/01/13 01:29:47;;;;;;;29.63;15.60;;;-8.30;82.80;;;;;;5015442;28;20017;-79
2021/01/13 01:32:13;;;;;;;30.23;15.30;;;-8.30;82.80;;;;;;5015097;28;20041;-77
2021/01/13 01:34:38;;;;;;;33.33;17.35;;;-8.30;82.70;;;;;;5014382;28;20029;-78
2021/01/13 01:37:04;;;;;;;25.30;17.17;;;-8.40;83.00;;;;;;5015103;28;20156;-79
2021/01/13 01:39:30;;;;;;;24.58;14.75;;;-8.40;83.20;;;;;;5015411;28;20101;-76
2021/01/13 01:41:56;;;;;;;27.67;14.77;;;-8.40;83.20;;;;;;5014028;28;20030;-79
2021/01/13 01:44:22;;;;;;;30.80;17.00;;;-8.40;83.20;;;;;;5015241;28;20576;-78
2021/01/13 01:46:50;;;;;;;29.10;15.73;;;-8.40;83.00;;;;;;5015382;28;20137;-78
2021/01/13 01:49:17;;;;;;;26.88;15.13;;;-8.40;83.10;;;;;;5015385;28;20451;-78
2021/01/13 01:51:58;;;;;;;36.30;17.95;;;-8.40;82.80;;;;;;5014109;28;20038;-78
2021/01/13 01:54:25;;;;;;;33.20;16.60;;;-8.40;82.20;;;;;;5014917;28;20028;-78
2021/01/13 01:56:54;;;;;;;35.70;16.13;;;-8.50;82.40;;;;;;5018957;28;20021;-79
2021/01/13 01:59:34;;;;;;;26.35;14.95;;;-8.40;82.80;;;;;;5020652;28;20058;-77
2021/01/13 02:02:03;;;;;;;29.25;15.55;;;-8.40;82.80;;;;;;5016145;28;20513;-77
2021/01/13 02:04:34;;;;;;;27.17;14.75;;;-8.40;82.70;;;;;;5013712;28;20060;-78
2021/01/13 02:07:09;;;;;;;32.90;15.43;;;-8.40;82.40;;;;;;5013718;28;20053;-78
2021/01/13 02:09:36;;;;;;;27.00;14.02;;;-8.40;82.40;;;;;;5014506;28;20026;-77
2021/01/13 02:12:11;;;;;;;27.17;15.40;;;-8.40;82.80;;;;;;5008854;28;20065;-78
2021/01/13 02:14:41;;;;;;;36.00;16.00;;;-8.40;83.30;;;;;;5014477;28;20026;-77
2021/01/13 02:17:09;;;;;;;31.15;15.45;;;-8.40;83.20;;;;;;5005782;28;20031;-78
2021/01/13 02:19:47;;;;;;;32.13;17.63;;;-8.30;82.70;;;;;;4998766;28;20033;-78
2021/01/13 02:22:17;;;;;;;26.83;15.50;;;-8.30;82.50;;;;;;5002264;28;20029;-78
2021/01/13 02:25:01;;;;;;;23.90;13.38;;;-8.30;82.50;;;;;;5014352;28;20024;-78
2021/01/13 02:28:03;;;;;;;38.30;17.35;;;-8.30;82.50;;;;;;5014196;28;20014;-79
2021/01/13 02:30:38;;;;;;;26.35;15.82;;;-8.30;82.40;;;;;;4993004;28;20033;-78
2021/01/13 02:33:30;;;;;;;29.92;14.80;;;-8.30;82.10;;;;;;5014227;28;20030;-78
2021/01/13 02:36:17;;;;;;;27.60;14.15;;;-8.40;81.70;;;;;;5003236;28;20020;-79
2021/01/13 02:38:51;;;;;;;34.95;15.05;;;-8.50;81.40;;;;;;5014309;28;20022;-79
2021/01/13 02:41:18;;;;;;;27.35;15.23;;;-8.60;81.90;;;;;;5014427;28;20045;-79
2021/01/13 02:43:57;;;;;;;27.13;15.55;;;-8.60;82.30;;;;;;5013735;28;20121;-79
2021/01/13 02:46:41;;;;;;;24.58;14.07;;;-8.60;82.20;;;;;;5014365;28;20038;-78
2021/01/13 02:49:09;;;;;;;27.15;14.45;;;-8.50;81.90;;;;;;5014085;28;20029;-79
2021/01/13 02:51:37;;;;;;;27.30;15.32;;;-8.60;82.00;;;;;;5014441;28;20033;-78
2021/01/13 02:54:33;;;;;;;33.05;15.98;;;-8.60;82.40;;;;;;5013822;28;20029;-79
2021/01/13 02:57:20;;;;;;;29.23;14.95;;;-8.50;83.40;;;;;;5013307;28;20076;-77
2021/01/13 02:59:48;;;;;;;26.70;14.98;;;-8.50;82.90;;;;;;5014175;28;20018;-79
2021/01/13 03:02:15;;;;;;;37.95;16.70;;;-8.40;83.00;;;;;;5013338;28;20053;-79
2021/01/13 03:04:41;;;;;;;;;;;-8.30;82.80;;;;;;5014670;28;20498;-79
2021/01/13 03:07:14;;;;;;;28.03;15.27;;;-8.30;82.60;;;;;;5013990;28;19952;-78
2021/01/13 03:09:49;;;;;;;28.38;17.60;;;-8.30;82.60;;;;;;5013854;28;20018;-78
2021/01/13 03:12:23;;;;;;;26.85;15.00;;;-8.30;82.10;;;;;;5013331;28;20038;-79
2021/01/13 03:14:57;;;;;;;29.83;17.20;;;-8.30;82.20;;;;;;5013223;28;20033;-79
2021/01/13 03:17:34;;;;;;;29.33;14.10;;;-8.40;82.50;;;;;;5013345;28;20029;-79
2021/01/13 03:20:37;;;;;;;28.17;15.20;;;-8.30;82.20;;;;;;5013189;28;20022;-80
2021/01/13 03:23:16;;;;;;;26.58;15.32;;;-8.30;82.00;;;;;;5006967;28;20498;-79
2021/01/13 03:25:51;;;;;;;29.75;14.52;;;-8.40;81.90;;;;;;5013179;28;20033;-80
2021/01/13 03:28:18;;;;;;;28.70;15.27;;;-8.40;82.10;;;;;;5011682;28;20079;-78
2021/01/13 03:30:48;;;;;;;30.35;15.13;;;-8.30;82.10;;;;;;5011813;28;20032;-78
2021/01/13 03:33:24;;;;;;;30.02;14.40;;;-8.30;82.00;;;;;;5013253;28;20133;-77
2021/01/13 03:36:23;;;;;;;31.15;16.88;;;-8.30;82.00;;;;;;5001165;28;20040;-77
2021/01/13 03:39:07;;;;;;;31.10;15.57;;;-8.30;82.00;;;;;;5012190;28;20038;-79
2021/01/13 03:41:48;;;;;;;27.42;16.58;;;-8.30;81.70;;;;;;5013286;28;20028;-77
2021/01/13 03:44:14;;;;;;;30.13;15.15;;;-8.30;81.60;;;;;;5012320;28;20109;-79
2021/01/13 03:46:41;;;;;;;23.92;15.95;;;-8.30;81.70;;;;;;5013152;28;20479;-79
2021/01/13 03:49:08;;;;;;;30.05;16.33;;;-8.30;82.10;;;;;;5012914;28;20108;-79
2021/01/13 03:52:00;;;;;;;24.83;16.20;;;-8.30;82.40;;;;;;5013467;28;20044;-77
2021/01/13 03:54:27;;;;;;;28.33;14.57;;;-8.20;82.20;;;;;;5014179;28;20022;-77
2021/01/13 03:57:04;;;;;;;;;;;-8.20;81.90;;;;;;4998997;28;20029;-77
2021/01/13 03:59:37;;;;;;;35.70;15.02;;;-8.20;81.60;;;;;;5015764;28;19906;-78
2021/01/13 04:02:07;;;;;;;35.53;17.30;;;-8.30;81.20;;;;;;5015934;28;20042;-79
2021/01/13 04:04:39;;;;;;;25.13;13.80;;;-8.30;81.30;;;;;;5013006;28;20030;-78
2021/01/13 04:07:09;;;;;;;26.92;15.25;;;-8.30;81.40;;;;;;5013001;28;20049;-77
2021/01/13 04:09:35;;;;;;;22.02;14.02;;;-8.30;81.20;;;;;;5012686;28;20069;-76
2021/01/13 04:12:13;;;;;;;27.13;14.55;;;-8.30;81.40;;;;;;5012716;28;20065;-80
2021/01/13 04:14:57;;;;;;;34.20;16.05;;;-8.30;81.40;;;;;;5012613;28;20506;-78
2021/01/13 04:17:27;;;;;;;32.42;16.33;;;-8.40;81.30;;;;;;5012695;28;20088;-79
2021/01/13 04:19:54;;;;;;;27.33;15.85;;;-8.40;81.60;;;;;;5012928;28;20092;-77
2021/01/13 04:22:25;;;;;;;33.20;14.63;;;-8.40;81.60;;;;;;5008151;28;20101;-77
2021/01/13 04:24:52;;;;;;;29.02;15.93;;;-8.40;81.60;;;;;;5012594;28;20478;-78
2021/01/13 04:27:18;;;;;;;31.55;14.30;;;-8.40;81.20;;;;;;5012973;28;20072;-79
2021/01/13 04:29:45;;;;;;;27.25;15.18;;;-8.40;80.60;;;;;;5012907;28;20041;-77
2021/01/13 04:32:12;;;;;;;28.00;13.80;;;-8.40;80.80;;;;;;5012434;28;20030;-77
2021/01/13 04:34:39;;;;;;;32.38;16.80;;;-8.50;80.80;;;;;;5012707;28;20029;-80
2021/01/13 04:37:07;;;;;;;24.60;13.40;;;-8.40;80.80;;;;;;5012404;28;20033;-77
2021/01/13 04:39:34;;;;;;;33.33;16.27;;;-8.50;80.50;;;;;;5012498;28;20014;-79
2021/01/13 04:42:04;;;;;;;34.42;16.65;;;-8.50;80.50;;;;;;5013472;28;20037;-78
2021/01/13 04:44:42;;;;;;;24.83;13.05;;;-8.50;80.90;;;;;;5012931;28;20030;-80
2021/01/13 04:47:09;;;;;;;31.15;16.60;;;-8.60;80.30;;;;;;5012460;28;20121;-79
2021/01/13 04:49:36;;;;;;;29.42;15.15;;;-8.70;80.40;;;;;;4995230;28;20400;-77
2021/01/13 04:52:09;;;;;;;30.80;14.05;;;-8.80;81.10;;;;;;5012269;28;20120;-77
2021/01/13 04:54:39;;;;;;;32.45;15.30;;;-8.90;81.40;;;;;;5011835;28;20026;-79
2021/01/13 04:57:11;;;;;;;26.92;14.70;;;-8.90;81.90;;;;;;5012300;28;20044;-78
2021/01/13 05:00:05;;;;;;;36.42;18.13;;;-8.90;82.20;;;;;;5012965;28;20068;-79
2021/01/13 05:02:34;;;;;;;28.27;15.18;;;-8.80;82.50;;;;;;5012848;28;20371;-79
2021/01/13 05:05:03;;;;;;;34.55;16.27;;;-8.80;82.60;;;;;;5015322;28;20022;-78
2021/01/13 05:07:32;;;;;;;33.65;14.95;;;-8.70;82.50;;;;;;5014331;28;20061;-81
2021/01/13 05:10:15;;;;;;;30.45;14.07;;;-8.70;82.50;;;;;;5015692;28;20034;-79
2021/01/13 05:12:55;;;;;;;32.17;14.27;;;-8.60;82.50;;;;;;5015667;28;20065;-77
2021/01/13 05:15:32;;;;;;;33.95;17.85;;;-8.60;82.60;;;;;;5015968;28;20088;-77
2021/01/13 05:18:03;;;;;;;27.50;14.07;;;-8.60;82.40;;;;;;5016250;28;20088;-79
2021/01/13 05:20:33;;;;;;;29.95;17.05;;;-8.60;82.10;;;;;;5016596;28;20026;-79
2021/01/13 05:23:00;;;;;;;33.20;17.65;;;-8.60;82.00;;;;;;5010661;28;20033;-78
2021/01/13 05:25:50;;;;;;;26.30;17.27;;;-8.60;82.00;;;;;;5016055;28;20018;-77
2021/01/13 05:28:26;;;;;;;31.42;15.65;;;-8.60;81.60;;;;;;5015483;28;20383;-77
2021/01/13 05:30:55;;;;;;;28.60;15.93;;;-8.70;81.70;;;;;;5014437;28;20113;-79
2021/01/13 05:33:32;;;;;;;37.30;17.63;;;-8.70;82.00;;;;;;5015452;28;20033;-78
2021/01/13 05:36:01;;;;;;;39.25;19.10;;;-8.60;82.20;;;;;;5015470;28;20022;-79
2021/01/13 05:38:49;;;;;;;29.05;15.43;;;-8.60;82.20;;;;;;5015400;28;20046;-77
2021/01/13 05:41:15;;;;;;;37.83;17.35;;;-8.50;82.20;;;;;;5016120;28;20534;-80
2021/01/13 05:43:45;;;;;;;31.27;15.73;;;-8.50;82.20;;;;;;5015324;28;20034;-80
2021/01/13 05:46:13;;;;;;;34.58;16.13;;;-8.60;82.00;;;;;;5008577;28;20502;-79
2021/01/13 05:48:42;;;;;;;;;;;-8.60;82.10;;;;;;5015539;28;20337;-79
2021/01/13 05:51:09;;;;;;;29.42;17.42;;;-8.60;82.10;;;;;;5015203;28;19920;-80
2021/01/13 05:53:35;;;;;;;43.57;19.80;;;-8.60;81.90;;;;;;5015016;28;20108;-79
2021/01/13 05:56:04;;;;;;;41.08;21.38;;;-8.70;81.80;;;;;;5017551;28;20243;-78
2021/01/13 05:58:30;;;;;;;36.40;17.33;;;-8.80;81.80;;;;;;5025728;28;20029;-80
2021/01/13 06:01:00;;;;;;;27.20;15.90;;;-8.80;82.10;;;;;;5018436;28;20010;-78
2021/01/13 06:03:29;;;;;;;32.78;16.92;;;-8.90;82.30;;;;;;5015193;28;20152;-79
2021/01/13 06:05:59;;;;;;;32.25;16.90;;;-8.90;82.60;;;;;;5014472;28;20014;-79
2021/01/13 06:08:31;;;;;;;29.38;15.30;;;-9.00;82.90;;;;;;5014638;28;20521;-78
2021/01/13 06:11:02;;;;;;;33.50;17.45;;;-9.00;83.10;;;;;;5014222;28;20572;-79
2021/01/13 06:13:30;;;;;;;28.77;16.05;;;-9.00;83.20;;;;;;5012292;28;20042;-80
2021/01/13 06:16:04;;;;;;;31.75;15.57;;;-9.00;83.00;;;;;;5014552;28;20446;-80
2021/01/13 06:18:32;;;;;;;30.35;14.45;;;-8.90;83.10;;;;;;5012666;28;20034;-78
2021/01/13 06:21:07;;;;;;;30.25;15.75;;;-8.90;83.20;;;;;;5012209;28;20026;-79
2021/01/13 06:23:41;;;;;;;29.80;16.17;;;-8.80;83.70;;;;;;5012930;28;20022;-79
2021/01/13 06:26:07;;;;;;;27.50;15.50;;;-8.80;83.80;;;;;;5014330;28;20041;-81
2021/01/13 06:29:35;;;;;;;27.55;16.42;;;-8.70;83.70;;;;;;5014560;28;20014;-81
2021/01/13 06:32:11;;;;;;;35.20;15.18;;;-8.60;83.40;;;;;;4910148;29;20465;-80
2021/01/13 06:34:54;;;;;;;33.78;16.77;;;-8.60;83.00;;;;;;5001470;28;20042;-79
2021/01/13 06:37:34;;;;;;;26.95;13.65;;;-8.50;82.60;;;;;;5014483;28;20028;-78
2021/01/13 06:40:13;;;;;;;28.85;14.70;;;-8.50;82.40;;;;;;5014750;28;20486;-79
2021/01/13 06:42:39;;;;;;;28.55;15.70;;;-8.40;82.10;;;;;;5002419;28;20120;-80
2021/01/13 06:45:07;;;;;;;39.60;16.27;;;-8.40;81.80;;;;;;5014198;28;20069;-80
2021/01/13 06:47:33;;;;;;;30.38;16.35;;;-8.40;82.10;;;;;;4994862;28;20026;-79
2021/01/13 06:49:59;;;;;;;32.15;18.33;;;-8.40;82.10;;;;;;5009850;28;20082;-81
2021/01/13 06:52:33;;;;;;;27.92;16.95;;;-8.30;81.80;;;;;;5015530;28;20117;-80
2021/01/13 06:55:00;;;;;;;30.02;14.27;;;-8.30;81.40;;;;;;5014117;28;20426;-80
2021/01/13 06:57:30;;;;;;;28.08;15.55;;;-8.30;81.40;;;;;;5014739;28;20025;-81
2021/01/13 07:00:00;;;;;;;23.60;12.73;;;-8.30;81.00;;;;;;4993763;28;20027;-80
2021/01/13 07:02:34;;;;;;;30.30;15.07;;;-8.30;81.30;;;;;;5010212;28;20124;-81
2021/01/13 07:05:00;;;;;;;30.38;13.70;;;-8.30;81.00;;;;;;5014186;28;20056;-81
2021/01/13 07:07:26;;;;;;;21.93;12.93;;;-8.30;81.20;;;;;;5015300;28;20072;-80
2021/01/13 07:09:52;;;;;;;26.27;14.38;;;-8.30;81.20;;;;;;5013982;28;20263;-80
2021/01/13 07:12:26;;;;;;;31.13;16.30;;;-8.20;81.30;;;;;;4995770;28;20444;-82
2021/01/13 07:14:56;;;;;;;23.67;14.60;;;-8.20;81.40;;;;;;4995251;28;20021;-80
2021/01/13 07:17:24;;;;;;;34.55;15.55;;;-8.10;81.10;;;;;;5013419;28;20025;-81
2021/01/13 07:19:51;;;;;;;25.70;14.63;;;-8.00;81.00;;;;;;5013826;28;20030;-82
2021/01/13 07:22:18;;;;;;;;;;;-8.00;80.10;;;;;;5010305;28;20453;-81
2021/01/13 07:24:45;;;;;;;24.40;13.18;;;-8.00;80.30;;;;;;5014095;28;20290;-81
2021/01/13 07:27:12;;;;;;;26.17;13.88;;;-7.90;80.10;;;;;;5014276;28;20028;-82
2021/01/13 07:29:39;;;;;;;29.92;15.07;;;-7.80;80.50;;;;;;5014318;28;20025;-81
2021/01/13 07:32:06;;;;;;;28.50;13.25;;;-7.80;80.40;;;;;;5014212;28;20042;-82
2021/01/13 07:34:32;;;;;;;26.95;15.02;;;-7.70;80.70;;;;;;5013449;28;20018;-80
2021/01/13 07:37:16;;;;;;;29.92;14.75;;;-7.60;80.60;;;;;;5011585;28;20037;-79
2021/01/13 07:39:51;;;;;;;29.88;16.20;;;-7.60;80.00;;;;;;5013313;28;20013;-81
2021/01/13 07:42:36;;;;;;;29.55;16.50;;;-7.50;79.70;;;;;;5011964;28;20427;-82
2021/01/13 07:45:08;;;;;;;23.48;15.40;;;-7.50;79.40;;;;;;5012075;28;20068;-81
2021/01/13 07:48:03;;;;;;;30.45;16.08;;;-7.40;78.80;;;;;;5000283;28;20030;-82
2021/01/13 07:50:32;;;;;;;32.50;16.80;;;-7.50;79.20;;;;;;5014277;28;20044;-81
2021/01/13 07:53:08;;;;;;;30.58;15.23;;;-7.50;79.20;;;;;;5015553;28;20042;-81
2021/01/13 07:55:46;;;;;;;30.30;16.27;;;-7.40;79.10;;;;;;5022473;28;20022;-81
2021/01/13 07:58:20;;;;;;;29.95;13.52;;;-7.40;78.70;;;;;;5028346;28;20014;-82
2021/01/13 08:01:17;;;;;;;33.65;15.05;;;-7.30;79.20;;;;;;5018058;28;20360;-81
2021/01/13 08:04:11;;;;;;;28.55;15.88;;;-7.20;79.40;;;;;;5013576;28;20021;-80
2021/01/13 08:06:48;;;;;;;28.10;15.20;;;-7.20;78.20;;;;;;5002557;28;20026;-80
2021/01/13 08:09:22;;;;;;;29.35;15.88;;;-7.30;77.30;;;;;;5014046;28;20451;-81
2021/01/13 08:12:09;;;;;;;26.92;14.40;;;-7.40;77.80;;;;;;4986324;28;20045;-79
2021/01/13 08:14:53;;;;;;;22.95;14.65;;;-7.40;78.30;;;;;;5013162;28;20022;-80
2021/01/13 08:17:47;;;;;;;30.48;15.50;;;-7.40;78.60;;;;;;5014019;28;20025;-80
2021/01/13 08:20:21;;;;;;;29.52;16.88;;;-7.30;78.30;;;;;;5017894;28;20028;-81
2021/01/13 08:22:59;;;;;;;31.00;17.38;;;-7.30;78.20;;;;;;5008244;28;20030;-81
2021/01/13 08:25:29;;;;;;;28.38;15.63;;;-7.40;77.80;;;;;;5014303;28;20034;-83
2021/01/13 08:28:01;;;;;;;30.38;14.80;;;-7.40;78.20;;;;;;5012933;28;20032;-82
2021/01/13 08:30:29;;;;;;;26.70;15.32;;;-7.40;78.00;;;;;;5012865;28;20073;-81
2021/01/13 08:32:56;;;;;;;28.75;14.80;;;-7.50;78.70;;;;;;5014003;28;20034;-81
2021/01/13 08:35:36;;;;;;;33.70;16.50;;;-7.50;78.80;;;;;;5015283;28;20041;-80
2021/01/13 08:38:10;;;;;;;25.42;14.82;;;-7.50;78.70;;;;;;5013660;28;20141;-80
2021/01/13 08:40:39;;;;;;;29.63;16.65;;;-7.50;78.10;;;;;;5012565;28;20072;-82
2021/01/13 08:43:13;;;;;;;31.80;16.88;;;-7.60;78.50;;;;;;5015902;28;20022;-82
2021/01/13 08:45:48;;;;;;;25.33;15.82;;;-7.70;79.10;;;;;;5016173;28;20541;-81
2021/01/13 08:48:19;;;;;;;27.33;15.88;;;-7.70;78.30;;;;;;5016215;28;20026;-81
2021/01/13 08:51:04;;;;;;;27.15;17.10;;;-7.90;78.40;;;;;;5001473;28;20022;-82
2021/01/13 08:53:31;;;;;;;28.98;15.88;;;-8.00;78.90;;;;;;5016780;28;20026;-81
2021/01/13 08:55:57;;;;;;;32.00;15.35;;;-8.10;79.50;;;;;;5017153;28;20105;-81
2021/01/13 08:58:32;;;;;;;29.45;18.95;;;-8.10;80.10;;;;;;5019553;28;20061;-81
2021/01/13 09:01:05;;;;;;;28.95;15.50;;;-8.00;80.00;;;;;;5017531;28;20022;-82
2021/01/13 09:03:41;;;;;;;23.60;13.85;;;-8.00;80.50;;;;;;5016228;28;20027;-82
2021/01/13 09:06:23;;;;;;;32.38;19.45;;;-8.00;80.60;;;;;;5016068;28;20032;-81
2021/01/13 09:08:51;;;;;;;24.73;13.05;;;-8.10;80.40;;;;;;5016022;28;20022;-81
2021/01/13 09:11:37;;;;;;;32.08;20.88;;;-8.10;80.70;;;;;;5015637;28;20454;-82
2021/01/13 09:14:18;;;;;;;30.08;20.35;;;-8.10;81.10;;;;;;5015171;28;20040;-82
2021/01/13 09:16:53;;;;;;;29.58;14.77;;;-8.10;80.80;;;;;;5017097;28;20022;-82
2021/01/13 09:19:37;;;;;;;39.85;17.58;;;-8.00;80.60;;;;;;5016595;28;20022;-83
2021/01/13 09:22:10;;;;;;;30.60;18.27;;;-7.90;80.90;;;;;;5016037;28;20029;-81
2021/01/13 09:24:41;;;;;;;44.55;15.52;;;-7.80;80.80;;;;;;5016974;28;20077;-79
2021/01/13 09:27:09;;;;;;;30.10;16.40;;;-7.80;81.00;;;;;;5015591;28;20471;-83
2021/01/13 09:29:53;;;;;;;31.80;17.13;;;-7.70;80.40;;;;;;5016842;28;20040;-81
2021/01/13 09:32:20;;;;;;;32.67;16.65;;;-7.70;80.90;;;;;;5002821;28;20029;-80
2021/01/13 09:34:47;;;;;;;22.50;12.40;;;-7.70;79.50;;;;;;5016305;28;20084;-82
2021/01/13 09:37:14;;;;;;;31.90;15.60;;;-7.80;78.80;;;;;;5016086;28;20088;-80
2021/01/13 09:39:54;;;;;;;30.48;15.90;;;-7.80;79.00;;;;;;5015459;28;20018;-82
2021/01/13 09:42:23;;;;;;;29.10;15.55;;;-7.80;79.30;;;;;;5015715;28;20387;-82
2021/01/13 09:45:00;;;;;;;24.42;16.27;;;-8.00;78.20;;;;;;5016677;28;20099;-82
2021/01/13 09:47:27;;;;;;;33.35;16.58;;;-8.00;79.20;;;;;;5018077;28;20054;-81
2021/01/13 09:49:58;;;;;;;27.52;16.80;;;-7.90;79.60;;;;;;5016772;28;20026;-82
2021/01/13 09:52:43;;;;;;;30.27;15.93;;;-7.80;79.60;;;;;;5016009;28;20040;-82
2021/01/13 09:55:10;;;;;;;37.30;18.15;;;-7.80;79.50;;;;;;5024863;28;20026;-81
2021/01/13 09:57:38;;;;;;;37.90;19.60;;;-7.90;79.30;;;;;;5022722;28;20093;-82
2021/01/13 10:00:08;;;;;;;27.52;15.43;;;-7.80;79.30;;;;;;5017061;28;20093;-82
2021/01/13 10:02:34;;;;;;;30.38;14.38;;;-7.80;78.80;;;;;;5016618;28;20076;-81
2021/01/13 10:05:00;;;;;;;36.78;17.83;;;-7.70;79.20;;;;;;5015826;28;20097;-81
2021/01/13 10:07:31;;;;;;;40.25;23.98;;;-7.50;79.20;;;;;;5014672;28;20028;-81
2021/01/13 10:10:03;;;;;;;27.92;14.73;;;-7.40;77.50;;;;;;5015149;28;20495;-83
2021/01/13 10:12:36;;;;;;;21.15;12.73;;;-7.50;77.40;;;;;;5015846;28;20030;-82
2021/01/13 10:15:05;;;;;;;28.77;17.30;;;-7.50;78.50;;;;;;5014497;28;20018;-81
2021/01/13 10:17:33;;;;;;;30.42;16.80;;;-7.40;78.50;;;;;;5014925;28;20026;-81
2021/01/13 10:20:09;;;;;;;;;;;-7.30;76.70;;;;;;5014958;28;20060;-81
2021/01/13 10:22:37;;;;;;;29.85;16.13;;;-7.20;76.60;;;;;;5008966;28;19951;-81
2021/01/13 10:25:03;;;;;;;20.60;10.50;;;-7.10;76.20;;;;;;5013267;28;20034;-80
2021/01/13 10:27:30;;;;;;;29.63;15.05;;;-7.00;77.10;;;;;;5015477;28;20021;-80
2021/01/13 10:29:56;;;;;;;22.83;12.10;;;-6.90;77.20;;;;;;5016248;28;20131;-80
2021/01/13 10:32:22;;;;;;;28.38;15.73;;;-6.80;76.00;;;;;;5015782;28;20070;-80
2021/01/13 10:34:54;;;;;;;36.83;18.52;;;-6.90;76.00;;;;;;5014301;28;20034;-82
2021/01/13 10:37:20;;;;;;;38.35;18.67;;;-6.80;76.40;;;;;;4997379;28;20029;-82
2021/01/13 10:39:46;;;;;;;33.60;16.92;;;-7.00;75.50;;;;;;5014338;28;20049;-81
2021/01/13 10:42:13;;;;;;;21.40;12.32;;;-7.10;76.10;;;;;;5014482;28;20110;-80
2021/01/13 10:44:39;;;;;;;30.37;15.77;;;-7.20;76.30;;;;;;5014973;28;20030;-81
2021/01/13 10:47:09;;;;;;;35.30;18.40;;;-7.30;76.30;;;;;;5013935;28;20029;-81
2021/01/13 10:49:42;;;;;;;29.75;16.73;;;-7.30;76.70;;;;;;5014160;28;20072;-82
2021/01/13 10:52:14;;;;;;;35.78;17.10;;;-7.40;76.50;;;;;;5014687;28;20037;-83
2021/01/13 10:54:42;;;;;;;33.45;16.92;;;-7.50;76.50;;;;;;5013458;28;20131;-82
2021/01/13 10:57:10;;;;;;;31.70;17.17;;;-7.60;77.00;;;;;;5014084;28;20037;-81
2021/01/13 10:59:40;;;;;;;40.92;17.90;;;-7.70;77.30;;;;;;5014236;28;20022;-82
2021/01/13 11:02:08;;;;;;;34.17;20.30;;;-7.90;77.60;;;;;;5013780;28;20050;-80
2021/01/13 11:04:44;;;;;;;34.28;19.45;;;-8.00;78.00;;;;;;5001060;28;20383;-82
2021/01/13 11:07:14;;;;;;;32.15;17.38;;;-8.10;78.60;;;;;;5014345;28;20109;-82
2021/01/13 11:09:52;;;;;;;24.83;13.60;;;-8.20;79.20;;;;;;5013397;28;20072;-81
2021/01/13 11:12:25;;;;;;;30.55;16.20;;;-8.30;79.60;;;;;;5014570;28;20475;-81
2021/01/13 11:14:52;;;;;;;21.90;10.95;;;-8.40;80.10;;;;;;5013813;28;20029;-81
2021/01/13 11:17:20;;;;;;;36.80;18.23;;;-8.30;80.30;;;;;;5014267;28;20109;-81
2021/01/13 11:19:56;;;;;;;31.65;17.40;;;-8.40;80.00;;;;;;5014299;28;20088;-81
2021/01/13 11:23:13;;;;;;;26.10;15.98;;;-8.50;79.90;;;;;;5014349;28;20026;-80
2021/01/13 11:25:41;;;;;;;30.65;14.80;;;-8.50;80.80;;;;;;4998608;28;20045;-81
2021/01/13 11:28:13;;;;;;;32.15;15.63;;;-8.40;81.30;;;;;;5013981;28;20216;-81
2021/01/13 11:30:50;;;;;;;30.10;13.20;;;-8.40;81.50;;;;;;5012727;28;20483;-81
2021/01/13 11:33:20;;;;;;;39.58;21.65;;;-8.30;81.40;;;;;;5013893;28;20038;-81
2021/01/13 11:35:49;;;;;;;32.33;19.15;;;-8.30;81.40;;;;;;5014416;28;20026;-80
2021/01/13 11:38:33;;;;;;;35.05;16.88;;;-8.20;81.50;;;;;;5015870;28;20026;-81
2021/01/13 11:41:24;;;;;;;40.30;16.98;;;-8.20;81.10;;;;;;4985171;28;20025;-82
2021/01/13 11:44:39;;;;;;;34.55;19.67;;;-8.10;81.20;;;;;;5013817;28;20048;-82
2021/01/13 11:47:17;;;;;;;32.33;16.35;;;-8.10;80.40;;;;;;4958918;28;20033;-82
2021/01/13 11:49:49;;;;;;;38.47;20.40;;;-8.30;80.50;;;;;;5004880;28;20033;-83
2021/01/13 11:52:17;;;;;;;32.55;17.58;;;-8.40;80.70;;;;;;5016555;28;20034;-82
2021/01/13 11:54:51;;;;;;;26.65;16.35;;;-8.40;81.20;;;;;;5020578;28;20018;-81
2021/01/13 11:57:26;;;;;;;31.08;18.08;;;-8.50;81.60;;;;;;5028098;28;20054;-82
2021/01/13 11:59:54;;;;;;;29.85;17.85;;;-8.50;81.70;;;;;;5017551;28;20022;-81
2021/01/13 12:02:25;;;;;;;30.55;16.48;;;-8.50;81.30;;;;;;5013843;28;20075;-83
2021/01/13 12:04:52;;;;;;;32.67;16.75;;;-8.60;81.40;;;;;;5007340;28;20102;-81
2021/01/13 12:07:19;;;;;;;29.60;13.43;;;-8.60;81.20;;;;;;4995046;28;20027;-81
2021/01/13 12:09:45;;;;;;;27.55;15.13;;;-8.70;81.60;;;;;;5007285;28;20022;-81
2021/01/13 12:12:28;;;;;;;31.08;15.85;;;-8.70;81.50;;;;;;5006425;28;20045;-83
2021/01/13 12:15:02;;;;;;;28.33;17.98;;;-8.80;81.20;;;;;;4992740;28;20463;-82
2021/01/13 12:17:32;;;;;;;30.38;17.98;;;-8.70;81.20;;;;;;5006824;28;20026;-81
2021/01/13 12:19:58;;;;;;;27.95;16.25;;;-8.90;80.80;;;;;;5017109;28;20026;-81
2021/01/13 12:22:36;;;;;;;22.02;11.82;;;-8.90;81.50;;;;;;5008487;28;20036;-82
2021/01/13 12:25:04;;;;;;;32.38;16.88;;;-9.00;81.30;;;;;;5014022;28;20324;-81
2021/01/13 12:27:30;;;;;;;33.97;18.10;;;-9.00;82.10;;;;;;5017177;28;20022;-82
2021/01/13 12:30:06;;;;;;;29.50;15.40;;;-9.00;82.20;;;;;;5004702;28;20054;-80
2021/01/13 12:32:33;;;;;;;27.10;17.17;;;-9.10;82.00;;;;;;4998639;28;20071;-81
2021/01/13 12:34:59;;;;;;;27.13;16.05;;;-9.20;83.10;;;;;;4999610;28;20022;-80
2021/01/13 12:37:25;;;;;;;32.63;20.02;;;-9.20;83.10;;;;;;4999636;28;20026;-80
2021/01/13 12:39:59;;;;;;;31.05;16.27;;;-9.20;82.90;;;;;;5000744;28;20049;-79
2021/01/13 12:42:33;;;;;;;35.25;17.00;;;-9.20;83.00;;;;;;4999101;28;20058;-82
2021/01/13 12:45:00;;;;;;;30.75;16.50;;;-9.20;83.20;;;;;;5010897;28;20022;-81
2021/01/13 12:47:27;;;;;;;26.15;15.25;;;-9.30;83.20;;;;;;4997426;28;20023;-80
2021/01/13 12:49:54;;;;;;;34.80;17.13;;;-9.40;83.20;;;;;;4997301;28;20440;-82
2021/01/13 12:52:21;;;;;;;29.30;15.70;;;-9.50;83.50;;;;;;4997577;28;20030;-81
2021/01/13 12:54:47;;;;;;;33.07;17.50;;;-9.50;83.40;;;;;;5007957;28;20041;-81